ADT,Max TemperatureF,Mean TemperatureF,Min TemperatureF,Max Dew PointF,MeanDew PointF,Min DewpointF,Max Humidity, Mean Humidity, Min Humidity, Max Sea Level PressureIn, Mean Sea Level PressureIn, Min Sea Level PressureIn, Max VisibilityMiles, Mean VisibilityMiles, Min VisibilityMiles, Max Wind SpeedMPH, Mean Wind SpeedMPH, Max Gust SpeedMPH,PrecipitationIn, CloudCover, Events, WindDirDegrees
2013-4-1,41,34,27,39,33,18,100,88,64,30.07,29.82,29.53,15,14,5,29,12,37,0.03,8,Rain-Snow,146
2013-4-2,38,34,28,39,26,14,100,73,38,29.66,29.56,29.45,20,15,10,22,13,33,0.08,6,Rain-Snow,227
2013-4-3,30,26,21,21,13,5,80,56,36,29.71,29.63,29.60,15,15,12,20,13,32,0.00,6,Snow,249
2013-4-4,41,34,26,19,15,9,69,49,25,29.97,29.85,29.71,15,15,15,17,12,29,0.00,5,,257
2013-4-5,49,40,32,39,30,23,100,69,45,29.98,29.84,29.65,15,14,10,21,13,24,0.24,7,Rain,197
2013-4-6,36,32,28,37,27,14,100,81,44,30.13,29.67,29.47,15,12,1,22,10,34,0.01,6,Rain-Snow,300
2013-4-7,38,30,23,21,13,5,60,47,26,30.33,30.23,30.11,15,15,15,13,10,20,0.00,4,,242
2013-4-8,48,39,30,41,32,21,100,84,55,30.14,30.01,29.93,15,13,0,16,10,21,0.01,8,Fog-Rain,276
2013-4-9,37,33,29,34,31,28,100,89,60,30.17,30.11,30.00,15,9,1,9,4,,0.03,8,Snow,110
2013-4-10,42,36,30,37,33,30,100,94,79,30.01,29.90,29.85,15,11,1,10,3,,0.00,8,Snow,225
2013-4-11,39,35,31,34,24,14,100,64,28,30.02,29.87,29.81,15,15,15,21,8,34,T,6,Rain-Snow,298
2013-4-12,37,33,29,32,26,19,93,74,50,30.24,30.17,30.03,15,14,2,17,11,25,0.04,5,Snow,347
2013-4-13,36,34,31,36,33,32,100,99,93,30.15,29.93,29.81,15,7,2,17,8,24,0.04,8,Rain-Snow,68
2013-4-14,39,35,31,36,33,30,100,97,81,30.12,30.02,29.91,15,8,0,8,6,,0.08,8,Rain-Snow,72
2013-4-15,45,36,28,34,29,23,100,79,36,30.41,30.28,30.12,15,11,1,15,5,17,0.00,3,Snow,12
2013-4-16,55,40,26,36,31,25,100,70,29,30.44,30.27,29.99,15,15,15,24,10,36,0.24,5,Rain,185
2013-4-17,52,46,39,43,34,25,100,70,34,30.18,29.92,29.78,15,14,8,25,20,45,0.12,4,Rain,265
2013-4-18,43,37,31,27,23,18,70,56,36,30.48,30.40,30.21,15,15,15,15,10,24,0.00,3,,17
2013-4-19,67,50,34,57,44,27,94,75,55,30.30,30.01,29.82,15,15,15,22,17,31,0.00,7,Fog,184
2013-4-20,62,54,44,59,53,40,100,94,70,29.95,29.72,29.63,15,12,4,28,20,36,0.08,7,Fog-Rain,204
2013-4-21,42,33,24,41,27,16,93,68,40,30.66,30.32,29.98,15,15,15,16,9,26,0.00,3,,311
2013-4-22,43,30,18,24,19,14,95,62,31,30.87,30.80,30.66,15,15,15,12,4,,0.00,0,,20
2013-4-23,51,40,28,37,25,16,87,60,18,30.79,30.66,30.53,15,15,10,20,10,26,0.16,5,Rain,151
2013-4-24,57,47,37,55,48,37,100,97,88,30.49,30.19,29.98,15,11,8,26,15,39,0.08,8,Rain,130
2013-4-25,62,53,44,54,49,43,100,89,65,30.19,30.03,29.91,15,12,2,26,20,37,0.08,7,Rain,199
2013-4-26,41,37,33,50,34,32,100,83,69,30.45,30.38,30.21,15,14,4,21,13,26,0.02,7,Rain,4
2013-4-27,40,35,30,36,33,30,100,93,75,30.39,30.35,30.33,15,9,2,17,11,26,0.00,7,Rain,348
2013-4-28,51,40,29,31,30,28,100,72,35,30.35,30.32,30.28,15,15,15,16,8,23,0.00,1,,353
2013-4-29,46,38,29,41,37,28,100,92,81,30.32,30.29,30.27,15,13,2,13,7,20,0.00,6,,347
2013-4-30,57,48,38,48,43,39,100,87,67,30.43,30.38,30.32,20,14,12,12,2,,0.00,6,Fog,45